Terminal Aerodrome Forecast
Issued by NWS

Home | Current Version | Previous Version | Text Only | Print | Product List | Glossary On
Versions: 1 2 3 4 5 6 7 8 9 10 11 12 13 14 15 16 17 18 19 20 21 22 23 24
421
FTUS45 KGGW 172320
TAFGDV
TAF
KGDV 172320Z 1800/1824 VRB06KT P6SM VCSH OVC080
     FM180330 08010KT 5SM -SN SCT020 OVC050
     FM180630 04018G26KT 1/2SM SN BLSN VV008
     FM181200 03017KT 3SM -SN BLSN OVC010
     FM181400 36012KT P6SM VCSH OVC015=

USA.gov is the U.S. government's official web portal to all federal, state and local government web resources and services.